Time;durP1;ratioP1;P1;durP2;ratioP2;P2;SDS_P1;SDS_P2;PMS_P1;PMS_P2;Temp;Humidity;BMP_temperature;BMP_pressure;BME280_temperature;BME280_humidity;BME280_pressure;Samples;Min_cycle;Max_cycle;Signal;HPM_P1;HPM_P2
2022/09/10 00:01:54;;;;;;;23.37;15.93;;;12.80;99.90;12.30;100368;;;;608942;234;24061;-85
2022/09/10 00:04:22;;;;;;;25.13;16.90;;;12.80;99.90;12.30;100365;;;;608605;231;24042;-86
2022/09/10 00:06:50;;;;;;;26.30;15.47;;;12.80;99.90;12.20;100363;;;;609193;234;24053;-90
2022/09/10 00:09:21;;;;;;;23.10;15.23;;;12.80;99.90;12.20;100350;;;;609279;230;24025;-87
2022/09/10 00:11:49;;;;;;;22.13;15.90;;;12.70;99.90;12.20;100347;;;;608911;235;24031;-84
2022/09/10 00:14:14;;;;;;;19.87;14.87;;;12.70;99.90;12.10;100345;;;;608495;231;24034;-85
2022/09/10 00:16:45;;;;;;;16.90;11.53;;;12.60;99.90;12.10;100333;;;;608379;236;24005;-84
2022/09/10 00:19:09;;;;;;;22.07;14.30;;;12.60;99.90;12.10;100344;;;;608828;234;24016;-84
2022/09/10 00:21:37;;;;;;;11.83;8.97;;;12.50;99.90;12.00;100350;;;;609945;230;24034;-84
2022/09/10 00:24:10;;;;;;;19.87;14.10;;;12.50;99.90;12.00;100352;;;;609563;233;24030;-85
2022/09/10 00:26:36;;;;;;;19.70;15.03;;;12.50;99.90;11.90;100345;;;;608758;235;24015;-85
2022/09/10 00:29:05;;;;;;;24.97;15.43;;;12.40;99.90;11.90;100351;;;;609350;233;24045;-84
2022/09/10 00:31:30;;;;;;;24.70;14.43;;;12.40;99.90;11.90;100348;;;;608882;236;24002;-84
2022/09/10 00:33:59;;;;;;;24.10;14.47;;;12.40;99.90;11.90;100357;;;;609098;231;24132;-84
2022/09/10 00:36:28;;;;;;;23.13;14.17;;;12.30;99.90;11.90;100359;;;;609437;230;24057;-85
2022/09/10 00:38:56;;;;;;;19.30;14.33;;;12.40;99.90;11.90;100358;;;;609842;233;24058;-85
2022/09/10 00:41:27;;;;;;;23.87;14.33;;;12.40;99.90;11.80;100350;;;;609676;236;24061;-85
2022/09/10 00:43:58;;;;;;;24.80;15.20;;;12.40;99.90;11.80;100348;;;;609686;236;24039;-86
2022/09/10 00:46:43;;;;;;;21.00;13.23;;;12.40;99.90;11.90;100344;;;;609932;231;24010;-84
2022/09/10 00:49:25;;;;;;;20.43;13.90;;;12.40;99.90;11.80;100336;;;;609245;234;24030;-86
2022/09/10 00:51:57;;;;;;;21.80;13.60;;;12.30;99.90;11.80;100324;;;;592435;235;24018;-84
2022/09/10 00:54:21;;;;;;;25.80;14.40;;;12.30;99.90;11.80;100319;;;;608962;236;24095;-85
2022/09/10 00:56:52;;;;;;;26.20;15.20;;;12.30;99.90;11.80;100331;;;;609264;230;24139;-85
2022/09/10 00:59:21;;;;;;;19.67;14.03;;;12.30;99.90;11.80;100331;;;;608744;236;24069;-88
2022/09/10 01:01:49;;;;;;;23.47;14.83;;;12.30;99.90;11.80;100325;;;;609055;234;24070;-87
2022/09/10 01:04:16;;;;;;;15.13;10.83;;;12.30;99.90;11.80;100322;;;;608693;231;25102;-85
2022/09/10 01:06:44;;;;;;;22.83;13.50;;;12.30;99.90;11.80;100320;;;;609044;234;24040;-86
2022/09/10 01:09:12;;;;;;;27.53;14.37;;;12.30;99.90;11.80;100317;;;;608543;234;24048;-85
2022/09/10 01:12:18;;;;;;;26.30;14.60;;;12.30;99.90;11.70;100312;;;;608228;234;24052;-86
2022/09/10 01:15:06;;;;;;;39.95;25.05;;;12.20;99.90;11.80;100311;;;;603271;234;34823;-85
2022/09/10 01:17:53;;;;;;;28.90;17.30;;;12.30;99.90;11.80;100311;;;;608869;236;24017;-86
2022/09/10 01:20:37;;;;;;;24.33;14.63;;;12.30;99.90;11.80;100317;;;;608204;231;24082;-88
2022/09/10 01:23:53;;;;;;;25.77;15.33;;;12.30;99.90;11.70;100317;;;;608400;236;24005;-86
2022/09/10 01:26:35;;;;;;;21.07;14.33;;;12.20;99.90;11.70;100321;;;;608112;236;24075;-85
2022/09/10 01:29:27;;;;;;;28.47;14.90;;;12.20;99.90;11.70;100315;;;;607636;235;23986;-86
2022/09/10 01:31:57;;;;;;;25.83;14.83;;;12.20;99.90;11.70;100317;;;;609901;234;24029;-86
2022/09/10 01:34:37;;;;;;;30.83;15.13;;;12.20;99.90;11.70;100315;;;;601809;235;24049;-87
2022/09/10 01:37:08;;;;;;;22.53;14.80;;;12.20;99.90;11.70;100310;;;;609329;235;24053;-85
2022/09/10 01:39:37;;;;;;;24.83;14.13;;;12.20;99.90;11.70;100303;;;;609789;233;24049;-85
2022/09/10 01:42:10;;;;;;;26.07;15.33;;;12.20;99.90;11.70;100302;;;;609356;233;24059;-89
2022/09/10 01:44:43;;;;;;;27.73;15.20;;;12.20;99.90;11.70;100294;;;;609545;230;23998;-90
2022/09/10 01:47:13;;;;;;;28.77;15.77;;;12.20;99.90;11.80;100295;;;;609209;235;24045;-90
2022/09/10 01:49:38;;;;;;;19.47;11.20;;;12.20;99.90;11.80;100304;;;;609252;236;24009;-92
2022/09/10 01:52:12;;;;;;;26.83;15.33;;;12.20;99.90;11.70;100298;;;;608415;230;24050;-90
2022/09/10 01:54:49;;;;;;;27.07;15.33;;;12.20;99.90;11.70;100296;;;;608393;236;24018;-94
2022/09/10 01:57:38;;;;;;;30.73;16.47;;;12.20;99.90;11.70;100291;;;;607999;236;24051;-91
2022/09/10 02:00:09;;;;;;;32.57;17.33;;;12.20;99.90;11.70;100284;;;;606186;236;24082;-87
2022/09/10 02:02:56;;;;;;;29.30;15.33;;;12.20;99.90;11.70;100288;;;;609124;233;24055;-90
2022/09/10 02:05:23;;;;;;;26.23;14.63;;;12.20;99.90;11.70;100288;;;;609607;230;24021;-92
2022/09/10 02:07:51;;;;;;;28.30;14.53;;;12.20;99.90;11.70;100283;;;;609484;236;24020;-93
2022/09/10 02:10:19;;;;;;;29.03;16.67;;;12.20;99.90;11.70;100276;;;;609649;231;24067;-89
2022/09/10 02:12:47;;;;;;;31.30;16.63;;;12.20;99.90;11.70;100274;;;;609887;234;24019;-86
2022/09/10 02:15:17;;;;;;;26.13;15.07;;;12.20;99.90;11.70;100266;;;;609797;234;24026;-88
2022/09/10 02:17:45;;;;;;;23.20;14.73;;;12.20;99.90;11.70;100275;;;;609820;234;24018;-88
2022/09/10 02:20:15;;;;;;;33.37;16.57;;;12.20;99.90;11.70;100275;;;;609553;234;24019;-85
2022/09/10 02:22:43;;;;;;;26.17;15.70;;;12.20;99.90;11.70;100273;;;;609223;234;24018;-86
2022/09/10 02:25:11;;;;;;;29.07;15.90;;;12.20;99.90;11.70;100273;;;;609089;236;24069;-85
2022/09/10 02:27:43;;;;;;;32.90;16.57;;;12.20;99.90;11.80;100276;;;;609788;231;24050;-90
2022/09/10 02:30:10;;;;;;;28.13;16.37;;;12.30;99.90;11.80;100278;;;;609330;236;24012;-86
2022/09/10 02:32:35;;;;;;;28.83;17.20;;;12.30;99.90;11.80;100279;;;;609341;236;25226;-86
2022/09/10 02:35:08;;;;;;;35.40;18.07;;;12.30;99.90;11.80;100278;;;;609135;234;24097;-88
2022/09/10 02:37:38;;;;;;;32.43;17.33;;;12.30;99.90;11.80;100278;;;;609394;234;24138;-87
2022/09/10 02:40:03;;;;;;;35.70;17.97;;;12.30;99.90;11.80;100288;;;;608825;230;23995;-84
2022/09/10 02:42:32;;;;;;;35.27;17.40;;;12.30;99.90;11.80;100279;;;;609609;234;24025;-87
2022/09/10 02:45:02;;;;;;;36.83;17.83;;;12.30;99.90;11.80;100284;;;;610617;233;24060;-85
2022/09/10 02:47:27;;;;;;;28.17;15.10;;;12.30;99.90;11.80;100281;;;;609925;235;24024;-85
2022/09/10 02:49:55;;;;;;;33.00;17.00;;;12.30;99.90;11.80;100279;;;;610348;233;24045;-84
2022/09/10 02:52:22;;;;;;;35.57;16.23;;;12.30;99.90;11.80;100282;;;;610093;230;24071;-85
2022/09/10 02:54:51;;;;;;;32.53;16.37;;;12.30;99.90;11.70;100279;;;;610148;233;24022;-85
2022/09/10 02:57:18;;;;;;;27.83;15.40;;;12.30;99.90;11.70;100273;;;;610012;230;24028;-85
2022/09/10 02:59:46;;;;;;;32.83;16.57;;;12.30;99.90;11.70;100271;;;;610075;233;24038;-87
2022/09/10 03:02:18;;;;;;;35.30;16.03;;;12.30;99.90;11.70;100262;;;;609824;233;24071;-87
2022/09/10 03:04:42;;;;;;;27.97;17.10;;;12.30;99.90;11.80;100268;;;;608775;236;23999;-86
2022/09/10 03:07:16;;;;;;;29.13;16.97;;;12.30;99.90;11.80;100266;;;;609914;233;24024;-85
2022/09/10 03:09:40;;;;;;;29.50;15.33;;;12.30;99.90;11.70;100259;;;;609602;231;24030;-87
2022/09/10 03:12:11;;;;;;;53.10;27.37;;;12.30;99.90;11.80;100268;;;;604310;233;34913;-85
2022/09/10 03:14:36;;;;;;;33.63;18.47;;;12.30;99.90;11.80;100258;;;;609478;236;23991;-85
2022/09/10 03:17:05;;;;;;;24.67;12.27;;;12.30;99.90;11.80;100251;;;;609665;233;24097;-87
2022/09/10 03:19:35;;;;;;;25.43;15.57;;;12.30;99.90;11.80;100252;;;;610172;233;24038;-85
2022/09/10 03:22:03;;;;;;;30.27;17.20;;;12.30;99.90;11.70;100248;;;;610061;234;24018;-84
2022/09/10 03:24:34;;;;;;;27.73;16.33;;;12.30;99.90;11.70;100254;;;;610110;231;24072;-85
2022/09/10 03:27:02;;;;;;;29.00;14.83;;;12.20;99.90;11.70;100247;;;;609378;236;24023;-89
2022/09/10 03:29:28;;;;;;;21.60;14.07;;;12.20;99.90;11.80;100258;;;;608881;236;24000;-86
2022/09/10 03:31:59;;;;;;;28.20;15.60;;;12.30;99.90;11.70;100250;;;;609712;235;24014;-84
2022/09/10 03:34:23;;;;;;;27.67;15.33;;;12.30;99.90;11.70;100254;;;;609715;236;24006;-85
2022/09/10 03:36:51;;;;;;;27.20;15.47;;;12.30;99.90;11.70;100256;;;;609662;231;24057;-86
2022/09/10 03:39:19;;;;;;;32.97;16.60;;;12.30;99.90;11.70;100248;;;;609436;230;24058;-87
2022/09/10 03:41:47;;;;;;;26.27;14.30;;;12.20;99.90;11.80;100262;;;;608930;234;24015;-87
2022/09/10 03:44:18;;;;;;;33.33;15.13;;;12.30;99.90;11.70;100248;;;;609171;234;24032;-87
2022/09/10 03:46:44;;;;;;;32.03;16.30;;;12.30;99.90;11.80;100248;;;;608713;236;24038;-86
2022/09/10 03:49:10;;;;;;;24.77;15.13;;;12.30;99.90;11.80;100252;;;;609273;234;24022;-87
2022/09/10 03:51:38;;;;;;;30.93;16.17;;;12.30;99.90;11.80;100244;;;;609214;234;24034;-86
2022/09/10 03:54:06;;;;;;;32.43;17.03;;;12.30;99.90;11.80;100247;;;;609559;234;24009;-88
2022/09/10 03:56:34;;;;;;;33.97;16.10;;;12.30;99.90;11.70;100240;;;;610534;230;24032;-85
2022/09/10 03:59:02;;;;;;;23.47;14.23;;;12.30;99.90;11.70;100244;;;;610178;230;24030;-86
2022/09/10 04:01:33;;;;;;;31.40;16.60;;;12.20;99.90;11.70;100246;;;;610554;233;24033;-84
2022/09/10 04:04:01;;;;;;;36.77;17.23;;;12.20;99.90;11.70;100246;;;;610221;235;24018;-87
2022/09/10 04:06:27;;;;;;;44.33;17.97;;;12.30;99.90;11.70;100240;;;;609613;236;24006;-87
2022/09/10 04:08:54;;;;;;;30.40;16.10;;;12.20;99.90;11.70;100252;;;;610117;230;24006;-85
2022/09/10 04:11:26;;;;;;;42.20;18.17;;;12.30;99.90;11.80;100252;;;;610536;233;24052;-85
2022/09/10 04:13:51;;;;;;;28.13;15.63;;;12.30;99.90;11.80;100248;;;;609970;236;24056;-87
2022/09/10 04:16:18;;;;;;;31.57;17.93;;;12.30;99.90;11.80;100249;;;;610618;236;24018;-86
2022/09/10 04:18:49;;;;;;;24.47;15.50;;;12.30;99.90;11.80;100248;;;;609781;233;24033;-88
2022/09/10 04:21:14;;;;;;;32.43;17.07;;;12.30;99.90;11.80;100257;;;;608866;231;24022;-86
2022/09/10 04:23:46;;;;;;;55.57;28.60;;;12.30;99.90;11.80;100255;;;;604159;233;34811;-86
2022/09/10 04:26:13;;;;;;;37.53;19.90;;;12.30;99.90;11.80;100258;;;;608622;236;24051;-87
2022/09/10 04:28:42;;;;;;;39.23;17.50;;;12.40;99.90;11.80;100259;;;;608614;236;24051;-85
2022/09/10 04:31:09;;;;;;;36.67;18.33;;;12.30;99.90;11.80;100256;;;;609229;233;24062;-88
2022/09/10 04:33:41;;;;;;;30.70;16.53;;;12.30;99.90;11.80;100251;;;;609113;236;24041;-89
2022/09/10 04:36:09;;;;;;;31.17;19.00;;;12.30;99.90;11.80;100246;;;;608696;236;24064;-85
2022/09/10 04:38:38;;;;;;;36.10;15.73;;;12.30;99.90;11.80;100252;;;;608814;236;24017;-86
2022/09/10 04:41:02;;;;;;;43.23;18.93;;;12.30;99.90;11.80;100254;;;;609063;235;24044;-87
2022/09/10 04:43:30;;;;;;;33.63;17.23;;;12.30;99.90;11.80;100253;;;;609478;234;24049;-87
2022/09/10 04:45:58;;;;;;;34.30;16.60;;;12.40;99.90;11.80;100254;;;;609396;234;24018;-87
2022/09/10 04:48:29;;;;;;;30.40;15.37;;;12.30;99.90;11.80;100253;;;;598701;236;24076;-87
2022/09/10 04:50:58;;;;;;;31.77;17.83;;;12.30;99.90;11.80;100244;;;;595039;236;23993;-86
2022/09/10 04:53:25;;;;;;;35.13;17.03;;;12.40;99.90;11.80;100244;;;;598260;235;24072;-85
2022/09/10 04:55:53;;;;;;;42.90;19.97;;;12.30;99.90;11.80;100243;;;;598339;236;24107;-85
2022/09/10 04:58:18;;;;;;;42.90;17.80;;;12.30;99.90;11.80;100241;;;;597908;236;23998;-86
2022/09/10 05:00:46;;;;;;;32.10;17.53;;;12.30;99.90;11.90;100238;;;;598579;236;24072;-86
2022/09/10 05:03:14;;;;;;;33.47;16.50;;;12.40;99.90;11.90;100232;;;;598292;236;24086;-86
2022/09/10 05:05:45;;;;;;;37.23;17.17;;;12.40;99.90;11.90;100245;;;;599169;235;25062;-84
2022/09/10 05:08:11;;;;;;;37.47;15.20;;;12.40;99.90;11.90;100242;;;;609297;230;24061;-85
2022/09/10 05:10:42;;;;;;;35.17;17.03;;;12.40;99.90;11.90;100241;;;;590193;234;24096;-81
2022/09/10 05:13:07;;;;;;;37.17;17.60;;;12.40;99.90;11.80;100236;;;;573383;250;24146;-80
2022/09/10 05:15:36;;;;;;;34.33;18.13;;;12.40;99.90;11.80;100240;;;;573443;250;24167;-82
2022/09/10 05:18:04;;;;;;;28.87;16.63;;;12.40;99.90;11.90;100233;;;;565064;250;24193;-80
2022/09/10 05:20:32;;;;;;;32.53;16.57;;;12.40;99.90;11.90;100241;;;;565006;250;24116;-81
2022/09/10 05:23:00;;;;;;;34.23;15.37;;;12.40;99.90;11.90;100234;;;;565224;250;24111;-80
2022/09/10 05:25:28;;;;;;;34.73;17.47;;;12.40;99.90;11.90;100236;;;;565059;250;24139;-80
2022/09/10 05:27:56;;;;;;;32.87;15.43;;;12.40;99.90;11.90;100236;;;;564693;250;24109;-81
2022/09/10 05:30:24;;;;;;;34.20;14.90;;;12.40;99.90;11.90;100244;;;;564919;250;24146;-81
2022/09/10 05:32:52;;;;;;;40.17;15.83;;;12.40;99.90;11.90;100247;;;;564974;250;24139;-81
2022/09/10 05:35:20;;;;;;;26.70;16.23;;;12.40;99.90;11.90;100237;;;;564759;250;24217;-79
2022/09/10 05:37:48;;;;;;;32.80;16.70;;;12.40;99.90;11.90;100238;;;;565415;250;24107;-81
2022/09/10 05:40:19;;;;;;;36.17;17.87;;;12.40;99.90;11.90;100241;;;;565200;250;24150;-81
2022/09/10 05:42:44;;;;;;;37.40;15.50;;;12.50;99.90;12.00;100257;;;;577635;245;24108;-80
2022/09/10 05:45:12;;;;;;;28.63;15.10;;;12.50;99.90;12.00;100259;;;;574440;247;24090;-79
2022/09/10 05:47:40;;;;;;;23.33;15.10;;;12.50;99.90;12.00;100254;;;;565945;250;24152;-80
2022/09/10 05:50:10;;;;;;;54.23;15.27;;;12.50;99.90;12.00;100253;;;;565275;250;24157;-80
2022/09/10 05:52:36;;;;;;;29.87;14.73;;;12.50;99.90;12.00;100249;;;;565870;250;24109;-80
2022/09/10 05:55:04;;;;;;;41.70;15.27;;;12.50;99.90;12.00;100258;;;;576890;245;24065;-80
2022/09/10 05:57:32;;;;;;;33.33;15.50;;;12.50;99.90;12.00;100256;;;;570649;250;24116;-80
2022/09/10 06:00:04;;;;;;;26.13;15.27;;;12.50;99.90;12.00;100256;;;;572991;250;24152;-76
2022/09/10 06:02:28;;;;;;;30.73;15.10;;;12.50;99.90;12.00;100266;;;;566359;249;24157;-76
2022/09/10 06:04:58;;;;;;;20.13;13.33;;;12.50;99.90;11.90;100262;;;;566080;250;24110;-77
2022/09/10 06:07:24;;;;;;;31.53;15.40;;;12.50;99.90;12.00;100265;;;;555531;254;24048;-80
2022/09/10 06:09:52;;;;;;;28.30;14.80;;;12.50;99.90;12.00;100268;;;;555440;254;24137;-81
2022/09/10 06:12:20;;;;;;;28.83;14.97;;;12.50;99.90;12.10;100261;;;;573800;246;24129;-80
2022/09/10 06:14:49;;;;;;;20.63;13.43;;;12.60;99.90;12.10;100266;;;;555255;254;24211;-80
2022/09/10 06:17:17;;;;;;;26.70;14.27;;;12.60;99.90;12.10;100264;;;;555386;254;24203;-79
2022/09/10 06:19:48;;;;;;;21.67;13.60;;;12.60;99.90;12.10;100265;;;;555582;254;24149;-80
2022/09/10 06:22:16;;;;;;;22.57;14.13;;;12.70;99.90;12.20;100268;;;;564506;254;24129;-78
2022/09/10 06:24:42;;;;;;;25.97;14.73;;;12.70;99.90;12.20;100259;;;;556176;250;24154;-76
2022/09/10 06:27:11;;;;;;;21.60;13.80;;;12.70;99.90;12.30;100267;;;;556574;254;24311;-78
2022/09/10 06:29:39;;;;;;;24.07;14.43;;;12.80;99.90;12.20;100259;;;;562816;245;24193;-77
2022/09/10 06:32:07;;;;;;;26.77;15.07;;;12.70;99.90;12.20;100253;;;;556225;250;24118;-77
2022/09/10 06:34:35;;;;;;;25.37;14.33;;;12.70;99.90;12.20;100260;;;;556483;254;24125;-77
2022/09/10 06:37:05;;;;;;;32.43;14.87;;;12.80;99.90;12.30;100263;;;;559431;243;24098;-80
2022/09/10 06:39:31;;;;;;;26.43;15.00;;;12.80;99.90;12.20;100261;;;;559398;245;24144;-79
2022/09/10 06:42:00;;;;;;;41.57;16.03;;;12.80;99.90;12.20;100267;;;;558678;253;24122;-78
2022/09/10 06:44:28;;;;;;;23.60;14.37;;;12.70;99.90;12.20;100266;;;;566042;249;24166;-78
2022/09/10 06:46:55;;;;;;;31.33;14.67;;;12.70;99.90;12.30;100272;;;;559038;247;24128;-77
2022/09/10 06:49:26;;;;;;;24.93;15.23;;;12.80;99.90;12.30;100263;;;;559380;253;24112;-77
2022/09/10 06:51:52;;;;;;;32.33;15.37;;;12.80;99.90;12.30;100263;;;;580395;243;24100;-77
2022/09/10 06:54:19;;;;;;;28.53;16.27;;;12.80;99.90;12.40;100267;;;;562048;252;24159;-77
2022/09/10 06:56:50;;;;;;;27.07;15.67;;;12.80;99.90;12.40;100274;;;;571062;247;24078;-78
2022/09/10 06:59:18;;;;;;;23.67;15.00;;;12.90;99.90;12.40;100268;;;;560279;252;24120;-77
2022/09/10 07:01:47;;;;;;;31.97;15.43;;;13.00;99.90;12.50;100272;;;;570217;247;24149;-77
2022/09/10 07:04:15;;;;;;;29.97;14.97;;;13.00;99.90;12.60;100270;;;;561533;252;24079;-79
2022/09/10 07:06:44;;;;;;;27.50;15.47;;;13.00;99.90;12.60;100268;;;;571875;247;24161;-79
2022/09/10 07:09:11;;;;;;;28.90;15.47;;;13.00;99.90;12.60;100270;;;;561669;249;24134;-77
2022/09/10 07:11:43;;;;;;;27.97;14.13;;;13.00;99.90;12.60;100267;;;;571943;247;24334;-78
2022/09/10 07:14:07;;;;;;;31.27;15.87;;;13.10;99.90;12.70;100285;;;;561634;252;24137;-79
2022/09/10 07:16:35;;;;;;;27.70;15.20;;;13.10;99.90;12.70;100275;;;;580376;247;24137;-79
2022/09/10 07:19:03;;;;;;;30.20;16.90;;;13.10;99.90;12.70;100275;;;;561790;252;24314;-80
2022/09/10 07:21:31;;;;;;;34.03;16.63;;;13.10;99.90;12.80;100274;;;;571698;247;24103;-80
2022/09/10 07:24:03;;;;;;;33.30;17.80;;;13.20;99.90;12.80;100271;;;;561905;252;24112;-80
2022/09/10 07:26:26;;;;;;;46.83;21.30;;;13.30;99.90;12.90;100263;;;;569803;247;24141;-80
2022/09/10 07:28:54;;;;;;;59.30;23.17;;;13.30;99.90;13.00;100268;;;;561746;251;24099;-78
2022/09/10 07:31:29;;;;;;;47.53;21.23;;;13.40;99.90;13.10;100262;;;;571547;247;24115;-78
2022/09/10 07:33:54;;;;;;;36.30;18.47;;;13.50;99.90;13.10;100260;;;;562437;252;24115;-79
2022/09/10 07:36:21;;;;;;;32.33;17.33;;;13.60;99.90;13.10;100254;;;;571753;247;24111;-78
2022/09/10 07:38:53;;;;;;;27.07;17.23;;;13.60;99.90;13.20;100263;;;;561551;252;24139;-79
2022/09/10 07:41:23;;;;;;;35.13;17.37;;;13.60;99.90;13.10;100272;;;;571693;247;24101;-79
2022/09/10 07:43:48;;;;;;;31.63;17.73;;;13.60;99.90;13.10;100267;;;;561008;252;24127;-79
2022/09/10 07:46:19;;;;;;;37.87;16.53;;;13.60;99.90;13.20;100266;;;;579084;247;24094;-79
2022/09/10 07:48:50;;;;;;;35.63;17.17;;;13.60;99.90;13.10;100268;;;;569294;247;24121;-77
2022/09/10 07:51:19;;;;;;;25.63;15.40;;;13.60;99.90;13.10;100266;;;;579046;247;24117;-77
2022/09/10 07:53:42;;;;;;;29.70;16.10;;;13.60;99.90;13.10;100271;;;;564899;250;24147;-79
2022/09/10 07:56:10;;;;;;;28.73;15.00;;;13.60;99.90;13.10;100268;;;;555962;254;24141;-80
2022/09/10 07:58:39;;;;;;;26.23;16.20;;;13.60;99.90;13.20;100274;;;;555894;254;24129;-80
2022/09/10 08:01:07;;;;;;;29.10;18.00;;;13.70;99.90;13.20;100268;;;;564009;251;24095;-79
2022/09/10 08:03:38;;;;;;;24.73;15.60;;;13.70;99.90;13.20;100275;;;;574199;249;24136;-77
2022/09/10 08:06:03;;;;;;;53.10;18.23;;;13.70;99.90;13.30;100273;;;;563113;255;24187;-79
2022/09/10 08:08:31;;;;;;;83.43;18.07;;;13.80;99.90;13.30;100278;;;;565410;250;24116;-80
2022/09/10 08:11:17;;;;;;;42.37;17.97;;;13.80;99.90;13.30;100280;;;;555677;254;24131;-80
2022/09/10 08:13:43;;;;;;;42.00;17.13;;;13.80;99.90;13.20;100265;;;;554397;255;24168;-81
2022/09/10 08:16:11;;;;;;;27.97;16.77;;;13.80;99.90;13.20;100274;;;;565236;246;24178;-81
2022/09/10 08:18:41;;;;;;;25.23;15.30;;;13.80;99.90;13.20;100275;;;;554750;255;24154;-81
2022/09/10 08:21:09;;;;;;;29.93;14.80;;;13.80;99.90;13.30;100262;;;;562303;251;24261;-79
2022/09/10 08:23:34;;;;;;;26.50;16.30;;;13.80;99.90;13.30;100265;;;;554129;254;24167;-80
2022/09/10 08:26:04;;;;;;;28.73;16.17;;;13.80;99.90;13.30;100265;;;;562987;250;24192;-80
2022/09/10 08:28:29;;;;;;;23.73;16.27;;;13.90;99.90;13.50;100275;;;;554768;255;24158;-80
2022/09/10 08:31:03;;;;;;;27.53;15.80;;;14.00;99.90;13.50;100274;;;;564930;250;24107;-81
2022/09/10 08:33:31;;;;;;;29.43;16.33;;;14.10;99.90;13.60;100277;;;;554686;254;24183;-80
2022/09/10 08:36:02;;;;;;;27.87;15.53;;;14.10;99.90;13.60;100272;;;;554908;255;24135;-79
2022/09/10 08:38:30;;;;;;;25.43;16.47;;;14.10;99.90;13.60;100268;;;;563366;254;24125;-80
2022/09/10 08:40:59;;;;;;;30.97;16.70;;;14.20;99.90;13.60;100273;;;;566514;249;24142;-81
2022/09/10 08:43:31;;;;;;;27.07;17.17;;;14.20;99.90;13.70;100279;;;;564992;254;24261;-80
2022/09/10 08:45:59;;;;;;;25.00;15.73;;;14.20;99.90;13.80;100275;;;;556731;251;24217;-81
2022/09/10 08:48:31;;;;;;;22.83;16.00;;;14.30;99.90;13.80;100279;;;;565780;250;24117;-79
2022/09/10 08:51:03;;;;;;;23.63;14.53;;;14.40;99.90;13.90;100267;;;;555648;254;24153;-80
2022/09/10 08:53:49;;;;;;;21.83;14.83;;;14.50;99.90;13.90;100273;;;;566863;249;24471;-78
2022/09/10 08:56:17;;;;;;;26.20;14.93;;;14.50;99.90;13.90;100265;;;;565782;249;24167;-80
2022/09/10 08:58:54;;;;;;;24.43;15.30;;;14.50;99.90;14.00;100272;;;;555883;254;24051;-80
2022/09/10 09:02:01;;;;;;;25.87;15.43;;;14.50;99.90;14.00;100271;;;;555109;254;24151;-79
2022/09/10 09:04:44;;;;;;;23.73;14.53;;;14.60;99.90;13.90;100259;;;;575268;249;24108;-80
2022/09/10 09:07:15;;;;;;;20.63;14.20;;;14.50;99.90;14.00;100263;;;;552872;254;24146;-78
2022/09/10 09:09:45;;;;;;;34.97;16.80;;;14.60;99.90;14.10;100259;;;;575351;249;24143;-79
2022/09/10 09:12:27;;;;;;;24.10;15.80;;;14.60;99.90;14.20;100252;;;;555919;254;24097;-80
2022/09/10 09:15:17;;;;;;;19.77;15.03;;;14.80;99.90;14.30;100254;;;;555724;254;24180;-79
2022/09/10 09:18:16;;;;;;;22.77;15.80;;;14.80;99.90;14.30;100254;;;;565691;250;24119;-78
2022/09/10 09:20:46;;;;;;;20.93;14.37;;;14.90;99.90;14.40;100256;;;;555920;254;24143;-79
2022/09/10 09:23:18;;;;;;;20.47;14.80;;;15.00;99.90;14.40;100251;;;;554905;255;24196;-79
2022/09/10 09:25:57;;;;;;;22.17;15.33;;;15.00;99.90;14.30;100257;;;;555358;254;24210;-78
2022/09/10 09:28:46;;;;;;;19.47;14.60;;;15.00;99.90;14.30;100247;;;;555743;254;24136;-79
2022/09/10 09:31:17;;;;;;;22.53;15.30;;;14.90;99.90;14.20;100251;;;;571165;247;24128;-79
2022/09/10 09:33:46;;;;;;;20.83;15.30;;;14.90;99.90;14.20;100251;;;;562928;254;25304;-80
2022/09/10 09:36:19;;;;;;;20.17;14.80;;;14.90;99.90;14.20;100256;;;;555954;254;24392;-79
2022/09/10 09:38:50;;;;;;;23.40;15.37;;;14.80;99.90;14.20;100257;;;;554659;255;24269;-80
2022/09/10 09:41:24;;;;;;;20.67;14.77;;;14.80;99.90;14.30;100260;;;;545259;255;24218;-80
2022/09/10 09:43:51;;;;;;;19.90;14.13;;;14.90;99.90;14.40;100260;;;;546143;259;24217;-79
2022/09/10 09:46:21;;;;;;;31.53;16.90;;;14.90;99.90;14.40;100265;;;;545600;259;24207;-80
2022/09/10 09:48:52;;;;;;;27.33;17.97;;;15.00;99.90;14.30;100260;;;;555688;254;24160;-78
2022/09/10 09:51:21;;;;;;;33.47;18.13;;;15.00;99.90;14.20;100266;;;;553951;255;24232;-79
2022/09/10 09:53:52;;;;;;;28.57;16.67;;;14.90;99.90;14.20;100259;;;;555291;258;24190;-79
2022/09/10 09:56:24;;;;;;;26.00;16.57;;;14.80;99.90;14.20;100252;;;;546939;259;24177;-79
2022/09/10 09:58:55;;;;;;;22.47;15.23;;;14.80;99.90;14.30;100256;;;;564976;250;24222;-78
2022/09/10 10:01:27;;;;;;;23.13;14.63;;;15.00;99.90;14.30;100251;;;;546729;259;24238;-79
2022/09/10 10:04:07;;;;;;;20.43;15.13;;;14.90;99.90;14.40;100261;;;;545524;259;24213;-80
2022/09/10 10:06:35;;;;;;;20.83;15.23;;;15.00;99.90;14.40;100249;;;;552399;253;26378;-81
2022/09/10 10:09:21;;;;;;;18.10;13.47;;;15.00;99.90;14.30;100241;;;;555015;253;24276;-82
2022/09/10 10:11:52;;;;;;;20.53;14.33;;;15.00;99.90;14.30;100236;;;;545807;259;24212;-80
2022/09/10 10:14:34;;;;;;;17.53;13.63;;;14.90;99.90;14.40;100239;;;;545442;259;24242;-79
2022/09/10 10:17:03;;;;;;;19.80;15.20;;;14.90;99.90;14.50;100234;;;;544987;259;24213;-80
2022/09/10 10:19:33;;;;;;;21.20;15.47;;;15.10;99.90;14.60;100225;;;;564889;250;24169;-80
2022/09/10 10:22:17;;;;;;;22.80;15.00;;;15.20;99.90;14.80;100225;;;;545569;259;24170;-79
2022/09/10 10:24:53;;;;;;;18.03;14.50;;;15.40;99.90;14.90;100220;;;;553841;258;24184;-78
2022/09/10 10:27:40;;;;;;;19.23;14.30;;;15.40;99.90;15.00;100214;;;;554732;254;24151;-79
2022/09/10 10:30:20;;;;;;;18.47;14.53;;;15.60;99.90;15.10;100207;;;;554999;254;24162;-79
2022/09/10 10:33:01;;;;;;;19.33;15.13;;;15.60;99.90;15.20;100212;;;;565143;254;24195;-78
2022/09/10 10:35:56;;;;;;;23.43;14.80;;;15.70;99.90;15.20;100213;;;;549936;259;24170;-80
2022/09/10 10:38:33;;;;;;;17.67;13.23;;;15.80;99.90;15.30;100211;;;;551595;259;24219;-80
2022/09/10 10:41:46;;;;;;;19.60;14.13;;;15.90;99.90;15.40;100207;;;;545647;259;24235;-81
2022/09/10 10:44:55;;;;;;;16.30;14.30;;;15.90;99.90;15.50;100214;;;;565657;250;24136;-82
2022/09/10 10:48:00;;;;;;;18.57;12.90;;;16.10;99.90;15.70;100224;;;;545193;259;24231;-83
2022/09/10 10:50:54;;;;;;;16.57;13.43;;;16.20;99.90;15.80;100229;;;;545588;259;24203;-81
2022/09/10 10:53:27;;;;;;;19.67;13.77;;;16.40;99.90;15.70;100227;;;;545473;259;24204;-82
2022/09/10 10:56:36;;;;;;;17.37;13.83;;;16.40;99.90;15.70;100222;;;;555870;254;24186;-83
2022/09/10 10:59:22;;;;;;;17.83;14.10;;;16.40;99.90;15.80;100215;;;;545304;259;24204;-82
2022/09/10 11:02:26;;;;;;;;;;;;;;;;;;;;;
2022/09/10 11:04:53;;;;;;;16.90;13.93;;;16.50;99.90;15.80;100214;;;;554566;254;24153;-81
2022/09/10 11:07:38;;;;;;;14.80;12.53;;;16.50;99.90;15.80;100212;;;;550292;259;24277;-81
2022/09/10 11:10:04;;;;;;;16.57;13.30;;;16.50;99.90;16.00;100209;;;;555714;250;24145;-80
2022/09/10 11:12:39;;;;;;;14.80;13.20;;;16.60;99.90;16.10;100211;;;;565325;251;24180;-81
2022/09/10 11:15:29;;;;;;;16.83;13.17;;;16.70;99.90;16.20;100205;;;;563792;250;24181;-79